createdAt,value
2023-01-04T00:01:23.086Z,3.95
2023-01-04T00:03:50.144Z,6.18
2023-01-04T00:06:17.352Z,6.80
2023-01-04T00:08:46.184Z,5.28
2023-01-04T00:11:18.183Z,4.82
2023-01-04T00:13:45.963Z,5.97
2023-01-04T00:16:15.564Z,9.27
2023-01-04T00:18:45.487Z,3.13
2023-01-04T00:21:17.408Z,5.68
2023-01-04T00:23:46.631Z,8.27
2023-01-04T00:26:16.134Z,7.25
2023-01-04T00:28:48.437Z,11.90
2023-01-04T00:31:18.623Z,7.05
2023-01-04T00:33:45.256Z,7.07
2023-01-04T00:36:14.323Z,3.67
2023-01-04T00:38:42.193Z,4.88
2023-01-04T00:41:18.934Z,4.35
2023-01-04T00:43:57.300Z,3.60
2023-01-04T00:46:23.895Z,5.53
2023-01-04T00:48:52.781Z,4.60
2023-01-04T00:51:21.905Z,6.85
2023-01-04T00:53:48.480Z,3.95
2023-01-04T00:56:15.088Z,5.60
2023-01-04T00:58:41.703Z,4.90
2023-01-04T01:01:08.928Z,6.28
2023-01-04T01:03:38.812Z,8.35
2023-01-04T01:06:07.963Z,3.90
2023-01-04T01:08:36.070Z,2.22
2023-01-04T01:11:07.651Z,5.03
2023-01-04T01:13:35.722Z,3.58
2023-01-04T01:16:07.428Z,3.10
2023-01-04T01:18:34.844Z,2.95
2023-01-04T01:21:05.508Z,4.80
2023-01-04T01:23:34.318Z,4.95
2023-01-04T01:26:02.237Z,4.82
2023-01-04T01:28:29.139Z,4.35
2023-01-04T01:30:56.010Z,2.65
2023-01-04T01:33:22.548Z,2.38
2023-01-04T01:35:49.100Z,4.40
2023-01-04T01:38:16.948Z,2.97
2023-01-04T01:40:44.900Z,3.00
2023-01-04T01:43:23.208Z,2.72
2023-01-04T01:45:57.203Z,2.47
2023-01-04T01:48:29.465Z,2.92
2023-01-04T01:51:01.292Z,2.67
2023-01-04T01:53:30.289Z,5.38
2023-01-04T01:55:58.330Z,3.63
2023-01-04T01:58:47.768Z,2.58
2023-01-04T02:01:14.517Z,3.88
2023-01-04T02:03:43.491Z,2.20
2023-01-04T02:06:19.159Z,2.38
2023-01-04T02:08:46.532Z,3.53
2023-01-04T02:11:13.073Z,1.80
2023-01-04T02:13:58.814Z,3.05
2023-01-04T02:16:46.575Z,3.25
2023-01-04T02:19:18.904Z,2.03
2023-01-04T02:22:00.148Z,4.75
2023-01-04T02:25:07.410Z,5.18
2023-01-04T02:27:55.362Z,3.05
2023-01-04T02:30:30.967Z,2.22
2023-01-04T02:33:15.737Z,8.65
2023-01-04T02:35:55.226Z,4.00
2023-01-04T02:38:37.061Z,1.95
2023-01-04T02:41:28.180Z,3.78
2023-01-04T02:44:32.189Z,2.17
2023-01-04T02:47:04.663Z,3.42
2023-01-04T02:49:49.868Z,2.15
2023-01-04T02:52:20.323Z,1.20
2023-01-04T02:54:49.663Z,2.20
2023-01-04T02:57:28.057Z,4.20
2023-01-04T03:00:23.859Z,1.40
2023-01-04T03:03:26.532Z,3.90
2023-01-04T03:06:15.294Z,1.65
2023-01-04T03:09:00.023Z,2.28
2023-01-04T03:11:59.721Z,1.73
2023-01-04T03:14:34.788Z,1.85
2023-01-04T03:17:07.912Z,1.45
2023-01-04T03:19:52.070Z,1.08
2023-01-04T03:22:59.139Z,1.27
2023-01-04T03:25:52.870Z,1.42
2023-01-04T03:28:41.907Z,1.48
2023-01-04T03:31:43.919Z,3.45
2023-01-04T03:34:31.528Z,3.10
2023-01-04T03:37:28.167Z,2.50
2023-01-04T03:40:46.195Z,6.10
2023-01-04T03:43:46.106Z,4.30
2023-01-04T03:46:46.396Z,5.68
2023-01-04T03:49:44.939Z,3.03
2023-01-04T03:52:14.440Z,3.42
2023-01-04T03:54:49.357Z,4.68
2023-01-04T03:57:17.424Z,1.92
2023-01-04T03:59:53.888Z,3.13
2023-01-04T04:02:28.314Z,3.30
2023-01-04T04:05:13.589Z,3.97
2023-01-04T04:07:58.451Z,2.38
2023-01-04T04:10:25.047Z,5.82
2023-01-04T04:12:52.406Z,2.28
2023-01-04T04:15:19.005Z,2.90
2023-01-04T04:17:45.561Z,3.22
2023-01-04T04:20:13.116Z,3.10
2023-01-04T04:22:40.546Z,4.32
2023-01-04T04:25:10.077Z,2.85
2023-01-04T04:27:36.576Z,2.97
2023-01-04T04:30:03.837Z,3.17
2023-01-04T04:32:32.738Z,2.70
2023-01-04T04:34:59.288Z,3.15
2023-01-04T04:37:30.342Z,1.88
2023-01-04T04:39:59.409Z,3.00
2023-01-04T04:42:26.018Z,4.82
2023-01-04T04:44:52.591Z,3.08
2023-01-04T04:47:19.441Z,2.35
2023-01-04T04:49:45.987Z,4.50
2023-01-04T04:52:12.513Z,2.72
2023-01-04T04:54:39.110Z,2.00
2023-01-04T04:57:06.389Z,2.10
2023-01-04T04:59:32.989Z,2.90
2023-01-04T05:01:59.810Z,4.60
2023-01-04T05:04:31.355Z,2.95
2023-01-04T05:07:00.237Z,4.68
2023-01-04T05:09:26.841Z,2.92
2023-01-04T05:12:12.040Z,2.60
2023-01-04T05:14:40.888Z,4.13
2023-01-04T05:17:07.514Z,6.68
2023-01-04T05:19:34.061Z,2.75
2023-01-04T05:22:00.631Z,2.42
2023-01-04T05:24:27.240Z,2.47
2023-01-04T05:26:53.804Z,3.78
2023-01-04T05:29:38.922Z,3.35
2023-01-04T05:32:05.839Z,5.03
2023-01-04T05:34:34.900Z,3.22
2023-01-04T05:37:01.610Z,4.10
2023-01-04T05:39:28.191Z,1.98
2023-01-04T05:42:13.332Z,3.42
2023-01-04T05:44:39.838Z,2.50
2023-01-04T05:47:14.699Z,2.83
2023-01-04T05:49:41.750Z,3.97
2023-01-04T05:52:08.337Z,3.28
2023-01-04T05:54:34.895Z,3.65
2023-01-04T05:57:03.710Z,3.00
2023-01-04T05:59:34.373Z,1.80
2023-01-04T06:02:07.133Z,2.10
2023-01-04T06:04:36.772Z,5.35
2023-01-04T06:07:03.287Z,3.83
2023-01-04T06:09:29.873Z,2.40
2023-01-04T06:11:58.778Z,4.30
2023-01-04T06:14:25.324Z,4.05
2023-01-04T06:16:52.016Z,4.82
2023-01-04T06:19:20.931Z,5.68
2023-01-04T06:21:47.594Z,3.65
2023-01-04T06:24:14.228Z,1.80
2023-01-04T06:26:40.796Z,2.47
2023-01-04T06:29:07.428Z,2.88
2023-01-04T06:31:34.048Z,4.57
2023-01-04T06:34:01.020Z,2.45
2023-01-04T06:36:27.830Z,3.47
2023-01-04T06:38:59.275Z,2.97
2023-01-04T06:41:27.045Z,2.83
2023-01-04T06:43:53.660Z,3.92
2023-01-04T06:46:20.601Z,2.53
2023-01-04T06:48:50.074Z,1.23
2023-01-04T06:51:16.596Z,2.25
2023-01-04T06:53:43.192Z,3.22
2023-01-04T06:56:09.781Z,2.75
2023-01-04T06:58:36.777Z,1.85
2023-01-04T07:01:03.765Z,3.78
2023-01-04T07:03:30.486Z,2.58
2023-01-04T07:05:57.407Z,3.45
2023-01-04T07:08:24.035Z,1.98
2023-01-04T07:10:51.451Z,2.95
2023-01-04T07:13:18.015Z,4.85
2023-01-04T07:15:44.625Z,1.70
2023-01-04T07:18:11.787Z,1.73
2023-01-04T07:20:38.909Z,3.88
2023-01-04T07:23:06.733Z,2.08
2023-01-04T07:25:33.408Z,2.05
2023-01-04T07:28:00.159Z,3.35
2023-01-04T07:30:26.766Z,2.42
2023-01-04T07:32:54.400Z,2.33
2023-01-04T07:35:21.805Z,7.45
2023-01-04T07:37:53.795Z,9.90
2023-01-04T07:40:24.339Z,6.30
2023-01-04T07:42:58.405Z,10.50
2023-01-04T07:45:25.605Z,13.50
2023-01-04T07:47:52.141Z,9.48
2023-01-04T07:50:18.700Z,3.50
2023-01-04T07:52:47.779Z,7.25
2023-01-04T07:55:16.572Z,8.13
2023-01-04T07:57:43.121Z,5.68
2023-01-04T08:00:11.508Z,4.57
2023-01-04T08:02:40.521Z,2.67
2023-01-04T08:05:07.523Z,2.05
2023-01-04T08:07:34.136Z,4.55
2023-01-04T08:10:01.809Z,2.45
2023-01-04T08:12:30.880Z,4.93
2023-01-04T08:14:57.529Z,4.72
2023-01-04T08:17:24.123Z,3.72
2023-01-04T08:19:50.706Z,2.67
2023-01-04T08:22:20.264Z,4.25
2023-01-04T08:24:46.888Z,5.85
2023-01-04T08:27:13.507Z,7.22
2023-01-04T08:29:40.075Z,1.77
2023-01-04T08:32:07.099Z,4.78
2023-01-04T08:34:33.660Z,2.78
2023-01-04T08:37:00.212Z,5.22
2023-01-04T08:39:29.563Z,3.03
2023-01-04T08:41:58.947Z,3.53
2023-01-04T08:44:28.992Z,5.63
2023-01-04T08:46:55.840Z,5.90
2023-01-04T08:49:22.940Z,4.55
2023-01-04T08:51:49.731Z,5.63
2023-01-04T08:54:16.635Z,4.40
2023-01-04T08:56:44.134Z,5.40
2023-01-04T08:59:12.673Z,4.85
2023-01-04T09:01:39.998Z,2.85
2023-01-04T09:04:07.195Z,7.88
2023-01-04T09:06:34.316Z,9.15
2023-01-04T09:09:00.960Z,3.53
2023-01-04T09:11:27.639Z,5.55
2023-01-04T09:13:59.739Z,9.27
2023-01-04T09:16:33.721Z,6.50
2023-01-04T09:19:00.470Z,3.65
2023-01-04T09:21:27.243Z,8.15
2023-01-04T09:23:57.369Z,3.63
2023-01-04T09:26:24.590Z,7.38
2023-01-04T09:28:55.844Z,9.80
2023-01-04T09:31:25.528Z,5.45
2023-01-04T09:36:41.741Z,4.75
2023-01-04T09:39:10.749Z,2.05
2023-01-04T09:41:49.823Z,9.15
2023-01-04T09:44:54.507Z,4.03
2023-01-04T09:47:19.954Z,4.03
2023-01-04T09:50:00.162Z,3.42
2023-01-04T09:53:09.288Z,5.20
2023-01-04T09:55:41.344Z,6.53
2023-01-04T09:58:27.018Z,5.03
2023-01-04T10:01:21.779Z,5.15
2023-01-04T10:04:33.928Z,4.28
2023-01-04T10:07:05.132Z,7.63
2023-01-04T10:09:32.322Z,2.80
2023-01-04T10:12:13.849Z,4.75
2023-01-04T10:14:46.359Z,3.67
2023-01-04T10:17:55.240Z,2.85
2023-01-04T10:23:47.850Z,4.43
2023-01-04T10:26:18.912Z,3.78
2023-01-04T10:29:07.831Z,2.72
2023-01-04T10:31:54.965Z,2.88
2023-01-04T10:34:28.151Z,3.85
2023-01-04T10:37:04.353Z,4.53
2023-01-04T10:39:35.949Z,3.05
2023-01-04T10:42:30.421Z,2.40
2023-01-04T10:45:45.295Z,2.70
2023-01-04T10:48:38.705Z,5.90
2023-01-04T10:51:10.306Z,4.10
2023-01-04T10:53:55.267Z,2.33
2023-01-04T10:56:33.340Z,1.65
2023-01-04T10:59:08.467Z,2.55
2023-01-04T11:01:48.160Z,4.53
2023-01-04T11:04:39.951Z,4.07
2023-01-04T11:07:20.587Z,3.33
2023-01-04T11:10:23.999Z,5.53
2023-01-04T11:12:50.660Z,2.63
2023-01-04T11:15:17.292Z,2.78
2023-01-04T11:17:45.538Z,2.20
2023-01-04T11:20:12.289Z,2.60
2023-01-04T11:22:45.014Z,2.13
2023-01-04T11:25:35.923Z,2.33
2023-01-04T11:28:15.985Z,1.90
2023-01-04T11:30:48.769Z,1.70
2023-01-04T11:33:22.742Z,16.05
2023-01-04T11:35:55.784Z,6.40
2023-01-04T11:38:25.477Z,2.63
2023-01-04T11:41:01.902Z,2.00
2023-01-04T11:43:33.289Z,2.00
2023-01-04T11:46:02.968Z,1.85
2023-01-04T11:48:44.633Z,4.00
2023-01-04T11:51:26.798Z,1.88
2023-01-04T11:54:01.531Z,2.03
2023-01-04T11:56:30.699Z,1.15
2023-01-04T11:59:17.723Z,2.47
2023-01-04T12:01:51.743Z,0.88
2023-01-04T12:04:27.848Z,1.13
2023-01-04T12:06:56.859Z,3.35
2023-01-04T12:09:23.724Z,1.35
2023-01-04T12:11:52.919Z,2.65
2023-01-04T12:14:36.503Z,2.03
2023-01-04T12:17:15.355Z,1.50
2023-01-04T12:19:43.775Z,2.00
2023-01-04T12:22:35.947Z,1.08
2023-01-04T12:25:06.565Z,3.22
2023-01-04T12:27:34.041Z,1.20
2023-01-04T12:30:03.276Z,1.70
2023-01-04T12:32:32.031Z,1.70
2023-01-04T12:35:01.023Z,3.90
2023-01-04T12:37:42.700Z,2.67
2023-01-04T12:40:46.602Z,1.80
2023-01-04T12:43:16.167Z,1.88
2023-01-04T12:45:48.336Z,2.83
2023-01-04T12:48:45.962Z,2.17
2023-01-04T12:51:35.321Z,2.83
2023-01-04T12:54:06.095Z,2.33
2023-01-04T12:57:10.666Z,2.28
2023-01-04T12:59:39.544Z,2.10
2023-01-04T13:02:17.673Z,3.60
2023-01-04T13:04:44.850Z,2.33
2023-01-04T13:07:19.428Z,3.20
2023-01-04T13:09:57.727Z,3.28
2023-01-04T13:13:05.845Z,2.42
2023-01-04T13:15:45.682Z,2.25
2023-01-04T13:18:43.200Z,3.80
2023-01-04T13:21:23.148Z,2.65
2023-01-04T13:23:59.978Z,5.05
2023-01-04T13:26:36.174Z,2.45
2023-01-04T13:29:11.780Z,3.97
2023-01-04T13:31:59.752Z,4.60
2023-01-04T13:34:52.222Z,5.32
2023-01-04T13:37:27.577Z,6.25
2023-01-04T13:40:19.571Z,4.53
2023-01-04T13:42:49.600Z,3.50
2023-01-04T13:45:33.419Z,3.60
2023-01-04T13:48:03.184Z,2.50
2023-01-04T13:50:40.417Z,4.63
2023-01-04T13:53:17.623Z,3.35
2023-01-04T13:55:44.199Z,3.42
2023-01-04T13:58:21.899Z,8.20
2023-01-04T14:00:57.947Z,4.22
2023-01-04T14:03:32.714Z,8.02
2023-01-04T14:06:21.452Z,5.47
2023-01-04T14:09:17.925Z,4.20
2023-01-04T14:12:09.160Z,3.60
2023-01-04T14:14:45.121Z,2.60
2023-01-04T14:17:16.622Z,3.80
2023-01-04T14:19:58.461Z,6.10
2023-01-04T14:22:40.413Z,4.95
2023-01-04T14:25:38.150Z,3.63
2023-01-04T14:28:24.610Z,5.00
2023-01-04T14:30:56.640Z,5.35
2023-01-04T14:33:29.161Z,2.70
2023-01-04T14:36:10.930Z,4.38
2023-01-04T14:38:40.739Z,3.00
2023-01-04T14:41:16.004Z,4.18
2023-01-04T14:43:47.276Z,3.97
2023-01-04T14:46:13.947Z,5.35
2023-01-04T14:48:40.673Z,3.90
2023-01-04T14:51:07.911Z,6.10
2023-01-04T14:53:34.637Z,3.58
2023-01-04T14:56:01.227Z,9.27
2023-01-04T14:58:27.766Z,4.28
2023-01-04T15:00:56.705Z,7.97
2023-01-04T15:03:23.328Z,7.55
2023-01-04T15:05:49.917Z,6.70
2023-01-04T15:08:16.523Z,11.60
2023-01-04T15:10:43.038Z,9.35
2023-01-04T15:13:09.683Z,12.43
2023-01-04T15:15:38.799Z,10.95
2023-01-04T15:18:05.710Z,7.65
2023-01-04T15:20:32.359Z,7.10
2023-01-04T15:22:59.231Z,11.40
2023-01-04T15:25:27.228Z,10.38
2023-01-04T15:27:53.829Z,6.75
2023-01-04T15:30:26.227Z,9.40
2023-01-04T15:32:57.642Z,8.93
2023-01-04T15:35:24.452Z,9.60
2023-01-04T15:37:51.499Z,13.00
2023-01-04T15:40:21.069Z,7.60
2023-01-04T15:42:59.647Z,11.18
2023-01-04T15:45:35.558Z,14.98
2023-01-04T15:48:11.444Z,10.18
2023-01-04T15:50:40.536Z,9.32
2023-01-04T15:53:08.343Z,13.63
2023-01-04T15:55:37.136Z,8.60
2023-01-04T15:58:05.049Z,13.65
2023-01-04T16:00:32.793Z,9.32
2023-01-04T16:02:59.481Z,10.30
2023-01-04T16:05:28.384Z,12.27
2023-01-04T16:07:54.919Z,14.10
2023-01-04T16:10:21.627Z,9.63
2023-01-04T16:12:54.760Z,13.05
2023-01-04T16:15:24.168Z,15.30
2023-01-04T16:17:50.785Z,13.70
2023-01-04T16:20:20.743Z,12.77
2023-01-04T16:22:49.889Z,14.82
2023-01-04T16:25:18.692Z,15.32
2023-01-04T16:27:45.287Z,14.00
2023-01-04T16:30:13.703Z,12.43
2023-01-04T16:32:42.336Z,10.27
2023-01-04T16:35:10.004Z,14.90
2023-01-04T16:37:39.673Z,13.73
2023-01-04T16:40:08.526Z,14.55
2023-01-04T16:42:37.763Z,8.45
2023-01-04T16:45:07.760Z,11.43
2023-01-04T16:47:42.132Z,12.95
2023-01-04T16:50:10.014Z,11.60
2023-01-04T16:52:37.221Z,16.98
2023-01-04T16:55:04.727Z,14.60
2023-01-04T16:57:31.304Z,12.48
2023-01-04T16:59:58.079Z,11.68
2023-01-04T17:02:27.238Z,10.35
2023-01-04T17:04:59.628Z,16.42
2023-01-04T17:07:32.920Z,13.55
2023-01-04T17:10:01.210Z,11.43
2023-01-04T17:15:41.791Z,17.55
2023-01-04T17:18:01.311Z,16.65
2023-01-04T17:20:27.936Z,16.08
2023-01-04T17:22:54.509Z,15.60
2023-01-04T17:25:21.128Z,13.52
2023-01-04T17:27:47.768Z,16.45
2023-01-04T17:30:14.672Z,16.05
2023-01-04T17:32:41.305Z,19.15
2023-01-04T17:35:08.218Z,11.65
2023-01-04T17:37:34.807Z,21.52
2023-01-04T17:40:01.407Z,20.15
2023-01-04T17:42:27.917Z,22.90
2023-01-04T17:44:54.537Z,19.95
2023-01-04T17:47:21.160Z,18.45
2023-01-04T17:49:47.777Z,17.65
2023-01-04T17:52:20.325Z,19.95
2023-01-04T17:54:51.103Z,19.98
2023-01-04T17:57:17.627Z,24.08
2023-01-04T17:59:44.157Z,27.38
2023-01-04T18:02:11.342Z,30.90
2023-01-04T18:04:38.099Z,18.33
2023-01-04T18:07:04.722Z,20.73
2023-01-04T18:09:31.384Z,28.35
2023-01-04T18:11:57.946Z,32.55
2023-01-04T18:14:27.763Z,29.08
2023-01-04T18:16:58.217Z,25.60
2023-01-04T18:19:30.346Z,31.60
2023-01-04T18:21:57.607Z,30.60
2023-01-04T18:24:41.710Z,38.90
2023-01-04T18:27:22.721Z,29.10
2023-01-04T18:29:50.539Z,40.00
2023-01-04T18:32:19.915Z,34.03
2023-01-04T18:34:46.508Z,29.45
2023-01-04T18:37:13.947Z,23.48
2023-01-04T18:39:43.001Z,22.80
2023-01-04T18:42:09.582Z,39.85
2023-01-04T18:44:45.590Z,27.40
2023-01-04T18:47:14.687Z,28.17
2023-01-04T18:49:41.231Z,28.58
2023-01-04T18:52:12.544Z,27.88
2023-01-04T18:54:39.151Z,27.73
2023-01-04T18:57:05.849Z,36.25
2023-01-04T18:59:32.558Z,31.38
2023-01-04T19:02:01.684Z,28.90
2023-01-04T19:04:36.344Z,29.92
2023-01-04T19:07:02.896Z,23.08
2023-01-04T19:09:30.605Z,33.28
2023-01-04T19:11:57.302Z,26.10
2023-01-04T19:14:24.198Z,27.05
2023-01-04T19:16:53.055Z,26.10
2023-01-04T19:19:20.305Z,28.60
2023-01-04T19:21:46.905Z,23.63
2023-01-04T19:24:13.478Z,27.98
2023-01-04T19:26:42.963Z,28.70
2023-01-04T19:29:09.983Z,36.22
2023-01-04T19:31:38.698Z,29.05
2023-01-04T19:34:05.322Z,33.75
2023-01-04T19:36:31.911Z,34.25
2023-01-04T19:38:58.526Z,30.63
2023-01-04T19:41:33.569Z,32.65
2023-01-04T19:44:07.093Z,30.13
2023-01-04T19:46:34.478Z,29.90
2023-01-04T19:49:01.191Z,25.10
2023-01-04T19:51:32.536Z,28.70
2023-01-04T19:54:01.654Z,25.80
2023-01-04T19:56:28.227Z,29.63
2023-01-04T19:58:54.795Z,23.70
2023-01-04T20:01:23.234Z,26.88
2023-01-04T20:03:50.404Z,19.92
2023-01-04T20:06:17.829Z,28.50
2023-01-04T20:08:46.735Z,32.40
2023-01-04T20:11:13.323Z,33.80
2023-01-04T20:13:42.680Z,29.80
2023-01-04T20:16:11.536Z,25.63
2023-01-04T20:18:38.441Z,30.25
2023-01-04T20:21:14.244Z,29.85
2023-01-04T20:23:41.309Z,22.45
2023-01-04T20:26:11.615Z,24.77
2023-01-04T20:28:42.202Z,25.15
2023-01-04T20:31:10.677Z,31.25
2023-01-04T20:33:37.271Z,24.27
2023-01-04T20:36:11.282Z,26.42
2023-01-04T20:38:40.113Z,22.33
2023-01-04T20:41:16.204Z,33.67
2023-01-04T20:43:44.464Z,21.17
2023-01-04T20:46:22.457Z,26.13
2023-01-04T20:48:49.331Z,22.20
2023-01-04T20:51:19.661Z,25.48
2023-01-04T20:53:48.987Z,20.58
2023-01-04T20:56:19.920Z,32.60
2023-01-04T20:58:50.231Z,28.20
2023-01-04T21:01:18.676Z,32.33
2023-01-04T21:03:45.438Z,25.67
2023-01-04T21:06:14.433Z,24.83
2023-01-04T21:08:42.564Z,27.80
2023-01-04T21:11:11.586Z,24.20
2023-01-04T21:13:38.846Z,27.55
2023-01-04T21:16:05.851Z,34.17
2023-01-04T21:18:33.050Z,21.35
2023-01-04T21:21:04.019Z,29.67
2023-01-04T21:23:30.610Z,31.10
2023-01-04T21:25:57.416Z,28.67
2023-01-04T21:28:24.679Z,20.15
2023-01-04T21:30:51.380Z,24.17
2023-01-04T21:33:18.293Z,31.27
2023-01-04T21:35:45.277Z,34.72
2023-01-04T21:38:11.947Z,24.45
2023-01-04T21:40:40.315Z,28.65
2023-01-04T21:43:09.548Z,32.97
2023-01-04T21:45:39.796Z,23.85
2023-01-04T21:48:06.776Z,27.52
2023-01-04T21:50:33.818Z,23.48
2023-01-04T21:53:02.600Z,24.85
2023-01-04T21:55:34.167Z,26.48
2023-01-04T21:58:01.535Z,29.05
2023-01-04T22:00:28.541Z,21.45
2023-01-04T22:02:55.237Z,32.38
2023-01-04T22:05:22.850Z,33.22
2023-01-04T22:07:49.449Z,27.77
2023-01-04T22:10:16.234Z,26.60
2023-01-04T22:12:44.825Z,33.03
2023-01-04T22:15:11.519Z,27.95
2023-01-04T22:17:38.119Z,36.25
2023-01-04T22:20:05.083Z,29.65
2023-01-04T22:22:31.736Z,21.58
2023-01-04T22:25:00.941Z,24.98
2023-01-04T22:27:27.436Z,28.27
2023-01-04T22:29:54.049Z,31.42
2023-01-04T22:32:20.654Z,32.25
2023-01-04T22:34:47.178Z,26.05
2023-01-04T22:37:13.716Z,23.17
2023-01-04T22:39:40.308Z,21.70
2023-01-04T22:42:06.909Z,29.17
2023-01-04T22:44:33.528Z,19.25
2023-01-04T22:47:00.193Z,28.42
2023-01-04T22:49:29.154Z,27.60
2023-01-04T22:51:57.356Z,26.25
2023-01-04T22:54:24.033Z,29.35
2023-01-04T22:56:53.125Z,26.25
2023-01-04T22:59:23.122Z,34.47
2023-01-04T23:01:52.614Z,24.00
2023-01-04T23:04:22.214Z,32.92
2023-01-04T23:06:51.113Z,33.72
2023-01-04T23:09:18.892Z,26.38
2023-01-04T23:11:45.773Z,21.77
2023-01-04T23:14:16.908Z,26.88
2023-01-04T23:16:44.763Z,33.78
2023-01-04T23:19:12.912Z,26.58
2023-01-04T23:21:39.851Z,24.08
2023-01-04T23:24:07.051Z,21.27
2023-01-04T23:26:34.427Z,25.10
2023-01-04T23:29:06.249Z,23.65
2023-01-04T23:31:33.634Z,24.23
2023-01-04T23:34:05.348Z,28.60
2023-01-04T23:36:36.820Z,30.15
2023-01-04T23:39:07.228Z,21.83
2023-01-04T23:41:46.851Z,28.10
2023-01-04T23:44:15.000Z,26.45
2023-01-04T23:46:42.089Z,21.42
2023-01-04T23:49:08.983Z,28.90
2023-01-04T23:51:35.578Z,27.98
2023-01-04T23:54:02.137Z,23.98
2023-01-04T23:56:28.698Z,32.35
2023-01-04T23:58:57.564Z,25.08
